Skip Navigation Links Skip Navigation Links

Current Weather

Central Park, New York

For information only: do not use for flight planning or navigation.
Latest weather
Observation time Thursday, June 21, 2018 4:51 PM EDT
Local time Thursday, June 21, 2018 5:55 PM EDT
Flight conditions Visual Meteorological Conditions
Winds
Wind speed calm
Visibility 10 mi.
Sky condition
Ceiling unlimited
Sky clear
Temperature 83°F
Dewpoint 54°F
Altimeter 29.77 in.Hg
Pressure change last 3 hours0.03 in.Hg
Pressure falling
Derived measurements
Relative humidity 37%
Heat index 83°F
Density altitude 2059 ft.
Sea-level pressure 29.74 in.Hg
Remarks
Fully automated report.
System requires maintenance.
Automated weather observing station with precipitation discriminator.
METAR KNYC 212051Z AUTO 00000KT 10SM CLR 28/12 A2977 RMK AO2 SLP072 T02830122 57009 $

Settings

Location code

InnerDrive.Weather 4.0.6615.0 Release CLR 4.0.30319.42000
Copyright ©2018 Inner Drive Technology. All rights reserved. Portions Copyright ©1986-2018 David Braverman.

Find weather

Site navigation


Skip Navigation Links

Place info

Page info

PayPal - The safer, easier way to pay online!

Return home.

Copyright ©2018 Inner Drive Technology. Purveyors of fine, hand-crafted computer software. Page printed 2018-06-21T21:55:05 UTC.